Time;durP1;ratioP1;P1;durP2;ratioP2;P2;SDS_P1;SDS_P2;PMS_P1;PMS_P2;Temp;Humidity;BMP_temperature;BMP_pressure;BME280_temperature;BME280_humidity;BME280_pressure;Samples;Min_cycle;Max_cycle;Signal;HPM_P1;HPM_P2
2022/07/01 00:01:36;;;;;;;3.58;2.50;;;;;;;22.27;64.87;99577.53;5033471;28;20468;-89
2022/07/01 00:04:01;;;;;;;3.20;2.17;;;;;;;22.04;64.43;99555.72;5033345;28;20065;-88
2022/07/01 00:06:26;;;;;;;5.38;2.20;;;;;;;22.27;63.95;99569.47;5033397;28;20117;-89
2022/07/01 00:08:52;;;;;;;3.33;2.30;;;;;;;22.31;63.72;99577.25;5033252;28;20518;-89
2022/07/01 00:11:17;;;;;;;4.00;2.83;;;;;;;22.13;63.89;99546.19;5030519;28;20049;-89
2022/07/01 00:13:43;;;;;;;3.85;2.55;;;;;;;22.37;63.89;99577.81;5036002;28;20057;-89
2022/07/01 00:16:08;;;;;;;3.40;1.65;;;;;;;22.34;63.52;99534.06;5051995;28;20028;-91
2022/07/01 00:18:34;;;;;;;3.45;2.67;;;;;;;22.59;63.34;99572.75;5053310;28;20087;-92
2022/07/01 00:21:01;;;;;;;3.63;2.50;;;;;;;22.28;63.28;99566.69;5051626;28;20048;-91
2022/07/01 00:23:27;;;;;;;3.50;2.28;;;;;;;22.35;62.91;99592.22;5053098;28;20101;-91
2022/07/01 00:25:53;;;;;;;3.35;2.38;;;;;;;22.28;63.64;99581.97;5034793;28;20025;-91
2022/07/01 00:28:18;;;;;;;3.25;2.15;;;;;;;22.04;64.19;99552.16;5052310;28;20430;-92
2022/07/01 00:30:44;;;;;;;2.33;1.70;;;;;;;22.05;64.33;99564.66;5053113;28;20111;-91
2022/07/01 00:33:09;;;;;;;4.13;2.10;;;;;;;21.88;64.10;99569.28;5053069;28;20028;-91
2022/07/01 00:35:35;;;;;;;2.92;1.70;;;;;;;21.97;64.13;99581.25;5051960;28;20037;-90
2022/07/01 00:38:00;;;;;;;3.33;2.08;;;;;;;21.62;64.35;99531.50;5052708;28;20029;-90
2022/07/01 00:40:26;;;;;;;2.95;1.70;;;;;;;21.93;64.65;99572.50;5052475;28;20033;-89
2022/07/01 00:42:52;;;;;;;4.88;2.65;;;;;;;21.93;64.64;99587.78;5052409;28;20033;-91
2022/07/01 00:45:17;;;;;;;4.25;2.17;;;;;;;21.75;65.06;99573.69;5052259;28;20035;-90
2022/07/01 00:47:44;;;;;;;3.33;2.10;;;;;;;21.86;65.01;99579.25;5052176;28;20509;-90
2022/07/01 00:50:12;;;;;;;6.43;2.83;;;;;;;21.93;64.88;99574.34;5052569;28;20049;-92
2022/07/01 00:52:42;;;;;;;4.30;2.58;;;;;;;21.70;64.65;99535.53;5052301;28;20037;-89
2022/07/01 00:55:10;;;;;;;3.15;2.08;;;;;;;22.12;64.06;99561.47;5034317;28;20403;-89
2022/07/01 00:57:37;;;;;;;3.90;2.50;;;;;;;21.94;63.62;99531.28;5051652;28;20041;-89
2022/07/01 01:00:05;;;;;;;4.35;3.45;;;;;;;21.73;64.32;99541.56;5033856;28;20445;-91
2022/07/01 01:02:31;;;;;;;3.47;2.08;;;;;;;21.49;64.44;99519.84;5033813;28;20033;-90
2022/07/01 01:04:57;;;;;;;4.03;2.65;;;;;;;21.51;63.81;99520.59;5052042;28;20034;-90
2022/07/01 01:07:23;;;;;;;3.90;2.42;;;;;;;21.58;63.79;99540.75;5052145;28;20498;-90
2022/07/01 01:09:49;;;;;;;5.20;2.17;;;;;;;21.79;63.82;99575.22;5051821;28;20060;-89
2022/07/01 01:12:14;;;;;;;4.82;2.22;;;;;;;21.73;63.33;99538.03;5051244;28;20550;-89
2022/07/01 01:14:48;;;;;;;4.50;2.15;;;;;;;21.64;63.62;99540.34;5051204;28;20053;-91
2022/07/01 01:17:15;;;;;;;3.17;2.40;;;;;;;22.00;63.18;99565.78;5051657;28;20021;-89
2022/07/01 01:19:42;;;;;;;2.90;1.92;;;;;;;21.83;63.32;99541.88;5050771;28;20044;-90
2022/07/01 01:22:08;;;;;;;3.25;1.83;;;;;;;21.57;63.13;99520.22;5051280;28;20043;-89
2022/07/01 01:24:36;;;;;;;4.28;2.50;;;;;;;21.69;61.88;99561.53;5051059;28;20036;-90
2022/07/01 01:27:03;;;;;;;2.85;1.98;;;;;;;21.60;61.98;99541.50;5033764;28;20020;-89
2022/07/01 01:29:28;;;;;;;3.60;2.25;;;;;;;21.61;62.63;99542.34;5033509;28;20036;-89
2022/07/01 01:31:54;;;;;;;3.15;1.77;;;;;;;21.72;62.25;99549.72;5051659;28;20033;-90
2022/07/01 01:34:19;;;;;;;4.70;3.15;;;;;;;21.58;62.65;99537.19;5032974;28;20033;-91
2022/07/01 01:36:45;;;;;;;4.88;2.10;;;;;;;21.61;62.36;99518.19;5033511;28;20032;-91
2022/07/01 01:41:36;;;;;;;6.75;2.60;;;;;;;21.73;62.69;99543.41;5051659;28;20029;-91
2022/07/01 01:44:01;;;;;;;7.45;2.15;;;;;;;21.72;62.00;99530.94;5050385;28;20488;-90
2022/07/01 01:46:29;;;;;;;3.83;2.10;;;;;;;21.59;62.47;99520.13;5051142;28;20032;-90
2022/07/01 01:48:54;;;;;;;4.30;2.40;;;;;;;21.62;63.13;99528.84;5050930;28;20499;-90
2022/07/01 01:51:20;;;;;;;3.40;1.85;;;;;;;21.63;63.43;99533.25;5032179;28;20025;-90
2022/07/01 01:53:45;;;;;;;3.58;2.20;;;;;;;21.70;63.67;99557.03;5033145;28;20048;-91
2022/07/01 01:56:11;;;;;;;7.00;2.60;;;;;;;21.80;63.49;99591.25;5032028;28;20127;-91
2022/07/01 01:58:36;;;;;;;3.92;1.92;;;;;;;21.60;62.58;99551.38;5050968;28;20025;-90
2022/07/01 02:01:02;;;;;;;2.90;1.83;;;;;;;21.56;63.17;99582.03;5051015;28;20036;-90
2022/07/01 02:03:28;;;;;;;4.35;2.08;;;;;;;21.74;62.60;99596.13;5030138;28;20044;-90
2022/07/01 02:05:54;;;;;;;2.33;1.75;;;;;;;21.64;63.12;99567.19;5013190;28;20036;-90
2022/07/01 02:08:20;;;;;;;6.05;2.17;;;;;;;21.60;63.43;99556.75;5030519;28;20032;-90
2022/07/01 02:10:45;;;;;;;3.55;1.80;;;;;;;21.56;62.28;99553.38;5030646;28;20499;-90
2022/07/01 02:13:11;;;;;;;3.35;2.10;;;;;;;21.44;62.49;99587.19;5030559;28;20025;-89
2022/07/01 02:15:36;;;;;;;3.33;2.30;;;;;;;21.38;62.46;99551.81;5030937;28;20045;-88
2022/07/01 02:18:02;;;;;;;3.33;1.98;;;;;;;21.56;62.19;99592.78;5031168;28;20411;-90
2022/07/01 02:20:27;;;;;;;2.78;1.70;;;;;;;21.41;62.26;99567.72;5030878;28;20034;-90
2022/07/01 02:22:53;;;;;;;3.47;2.17;;;;;;;21.55;62.37;99583.88;5028874;28;20041;-89
2022/07/01 02:25:19;;;;;;;5.50;2.38;;;;;;;21.67;62.61;99605.53;5030979;28;20029;-89
2022/07/01 02:27:45;;;;;;;2.53;1.80;;;;;;;21.62;63.13;99595.06;5031050;28;20029;-91
2022/07/01 02:30:11;;;;;;;3.75;2.30;;;;;;;21.52;63.27;99586.75;5030645;28;20068;-91
2022/07/01 02:32:36;;;;;;;4.10;1.83;;;;;;;21.44;64.44;99614.03;5030834;28;20033;-88
2022/07/01 02:35:02;;;;;;;3.15;2.25;;;;;;;20.87;65.45;99544.19;5030918;28;20025;-90
2022/07/01 02:37:29;;;;;;;4.05;2.45;;;;;;;21.32;65.14;99597.78;5030661;28;20037;-90
2022/07/01 02:39:54;;;;;;;3.60;2.55;;;;;;;21.30;65.11;99597.88;5029478;28;20065;-90
2022/07/01 02:42:23;;;;;;;5.45;2.00;;;;;;;21.57;64.80;99611.47;5030749;28;20064;-90
2022/07/01 02:44:48;;;;;;;5.57;2.55;;;;;;;21.59;64.82;99614.91;5030772;28;20069;-90
2022/07/01 02:47:14;;;;;;;3.40;1.95;;;;;;;21.40;65.01;99600.88;5030764;28;20570;-90
2022/07/01 02:49:39;;;;;;;2.28;1.52;;;;;;;21.27;65.21;99581.97;5030840;28;20030;-91
2022/07/01 02:52:06;;;;;;;3.28;1.90;;;;;;;21.43;64.57;99595.34;5030422;28;20124;-90
2022/07/01 02:54:31;;;;;;;4.07;1.80;;;;;;;21.37;64.64;99606.44;5030697;28;20037;-89
2022/07/01 02:56:56;;;;;;;2.38;2.00;;;;;;;21.49;64.43;99619.13;5030663;28;20395;-90
2022/07/01 02:59:22;;;;;;;2.70;1.92;;;;;;;21.50;63.92;99610.09;5030730;28;20072;-89
2022/07/01 03:01:47;;;;;;;4.80;2.53;;;;;;;21.61;63.88;99620.19;5030073;28;20037;-91
2022/07/01 03:04:13;;;;;;;4.00;2.35;;;;;;;21.19;64.78;99595.84;5030295;28;20037;-90
2022/07/01 03:06:38;;;;;;;3.92;2.03;;;;;;;21.34;64.73;99610.16;5030020;28;20038;-90
2022/07/01 03:09:04;;;;;;;2.22;2.00;;;;;;;21.40;65.19;99639.31;5028790;28;20044;-90
2022/07/01 03:11:29;;;;;;;6.32;2.63;;;;;;;21.47;65.08;99637.09;5030115;28;20041;-88
2022/07/01 03:13:55;;;;;;;3.38;2.63;;;;;;;21.35;65.24;99617.25;5034702;28;20454;-90
2022/07/01 03:16:20;;;;;;;5.32;3.35;;;;;;;21.50;65.60;99639.63;5049697;28;20036;-91
2022/07/01 03:18:46;;;;;;;2.78;1.80;;;;;;;21.36;66.19;99618.13;5031547;28;20032;-90
2022/07/01 03:21:11;;;;;;;3.92;2.30;;;;;;;21.44;66.28;99643.53;5031548;28;20045;-90
2022/07/01 03:23:37;;;;;;;3.53;2.92;;;;;;;21.45;66.25;99629.13;5052507;28;20029;-91
2022/07/01 03:26:02;;;;;;;4.93;2.85;;;;;;;21.26;66.95;99633.91;5053485;28;20106;-90
2022/07/01 03:28:28;;;;;;;3.17;2.67;;;;;;;21.26;66.85;99623.19;5035747;28;20082;-89
2022/07/01 03:30:53;;;;;;;3.50;2.50;;;;;;;21.24;66.24;99631.31;5053515;28;20029;-89
2022/07/01 03:33:20;;;;;;;4.95;2.88;;;;;;;20.99;66.20;99610.50;5054204;28;20040;-93
2022/07/01 03:35:45;;;;;;;4.75;3.10;;;;;;;20.94;65.45;99623.28;5035089;28;20079;-92
2022/07/01 03:38:12;;;;;;;3.90;2.67;;;;;;;20.79;65.27;99627.75;5035662;28;20060;-91
2022/07/01 03:40:38;;;;;;;6.40;3.33;;;;;;;20.83;65.92;99634.63;5035436;28;20040;-91
2022/07/01 03:43:04;;;;;;;3.25;2.45;;;;;;;21.12;64.74;99629.38;5052959;28;20032;-91
2022/07/01 03:45:30;;;;;;;5.38;3.40;;;;;;;21.33;63.34;99607.56;5053786;28;20484;-91
2022/07/01 03:47:56;;;;;;;7.10;3.50;;;;;;;21.44;63.26;99626.56;5052316;28;20024;-90
2022/07/01 03:50:23;;;;;;;3.33;2.03;;;;;;;21.45;63.14;99660.50;5035547;28;20041;-91
2022/07/01 03:54:29;;;;;;;3.13;1.75;;;;;;;21.45;63.50;99653.28;5052393;28;20036;-92
2022/07/01 03:55:34;;;;;;;3.88;2.55;;;;;;;21.52;62.48;99621.63;5052752;28;20044;-91
2022/07/01 03:58:00;;;;;;;3.13;2.15;;;;;;;21.97;61.66;99625.06;5050933;28;20499;-92
2022/07/01 04:00:25;;;;;;;3.10;2.25;;;;;;;22.16;61.69;99638.19;5034678;28;20032;-92
2022/07/01 04:02:51;;;;;;;4.47;2.33;;;;;;;22.07;61.98;99628.03;5053141;28;20025;-91
2022/07/01 04:05:16;;;;;;;3.58;2.65;;;;;;;22.12;61.64;99614.31;5053558;28;21013;-92
2022/07/01 04:07:42;;;;;;;3.45;2.15;;;;;;;22.27;61.18;99610.63;5053224;28;20036;-93
2022/07/01 04:10:07;;;;;;;4.82;2.65;;;;;;;22.66;60.65;99643.09;5034726;28;20414;-93
2022/07/01 04:12:33;;;;;;;2.95;2.10;;;;;;;22.67;61.14;99652.88;5053694;28;20033;-94
2022/07/01 04:14:58;;;;;;;3.30;1.88;;;;;;;22.76;60.49;99656.81;5031539;28;20049;-94
2022/07/01 04:17:24;;;;;;;4.63;2.63;;;;;;;22.23;60.95;99627.94;5033008;28;20487;-95
2022/07/01 04:19:49;;;;;;;4.40;2.30;;;;;;;22.06;61.08;99620.94;5033295;28;20033;-92
2022/07/01 04:22:33;;;;;;;2.85;2.05;;;;;;;22.36;61.24;99657.56;5032744;28;20033;-93
2022/07/01 04:25:03;;;;;;;2.28;1.77;;;;;;;22.35;60.33;99616.41;5032089;28;20037;-94
2022/07/01 04:27:32;;;;;;;5.60;2.60;;;;;;;22.37;60.37;99626.19;5033008;28;20060;-94
2022/07/01 04:29:58;;;;;;;2.95;1.80;;;;;;;22.76;60.04;99646.03;5031961;28;20028;-94
2022/07/01 04:32:23;;;;;;;2.05;1.52;;;;;;;22.74;59.48;99645.25;5034112;28;20030;-94
2022/07/01 04:34:50;;;;;;;4.75;1.73;;;;;;;22.50;60.20;99608.31;5039658;28;20034;-92
2022/07/01 04:37:16;;;;;;;2.78;2.35;;;;;;;23.04;59.13;99643.22;5044910;28;20041;-94
2022/07/01 04:39:41;;;;;;;3.55;2.35;;;;;;;23.04;59.84;99651.28;5035401;28;20087;-92
2022/07/01 04:42:07;;;;;;;3.60;2.60;;;;;;;22.99;58.54;99615.78;5033183;28;20029;-96
2022/07/01 04:44:36;;;;;;;7.25;2.67;;;;;;;23.20;57.01;99651.16;5032795;28;20071;-95
2022/07/01 04:47:03;;;;;;;3.08;2.13;;;;;;;23.83;56.64;99655.81;5031964;28;20063;-94
2022/07/01 04:49:29;;;;;;;5.93;2.60;;;;;;;24.03;55.98;99649.91;5032348;28;20508;-95
2022/07/01 04:51:55;;;;;;;3.70;2.58;;;;;;;24.25;56.64;99656.44;5031713;28;20120;-96
2022/07/01 04:54:21;;;;;;;6.72;3.35;;;;;;;24.46;54.48;99659.41;5031881;28;20411;-95
2022/07/01 04:56:47;;;;;;;5.75;3.03;;;;;;;24.65;53.20;99640.03;5030601;28;20025;-93
2022/07/01 04:59:13;;;;;;;5.93;3.38;;;;;;;24.95;54.14;99655.78;5031341;28;20041;-91
2022/07/01 05:01:41;;;;;;;3.67;2.45;;;;;;;25.38;52.32;99667.88;5031466;28;20029;-95
2022/07/01 05:04:06;;;;;;;4.05;2.90;;;;;;;25.53;52.34;99642.38;5031640;28;20038;-94
2022/07/01 05:06:33;;;;;;;4.13;2.25;;;;;;;25.88;51.22;99665.72;5031246;28;20128;-95
2022/07/01 05:08:59;;;;;;;5.70;3.58;;;;;;;26.09;50.28;99667.75;5030654;28;20025;-94
2022/07/01 05:11:25;;;;;;;4.03;2.25;;;;;;;26.20;50.91;99647.97;5032608;28;20043;-94
2022/07/01 05:13:50;;;;;;;22.48;4.28;;;;;;;26.48;50.60;99646.56;5032537;28;20503;-92
2022/07/01 05:16:16;;;;;;;3.20;2.08;;;;;;;26.22;49.70;99640.56;5036164;28;20120;-92
2022/07/01 05:24:09;;;;;;;7.32;3.25;;;;;;;27.31;47.12;99665.81;5031566;28;20573;-94
2022/07/01 05:26:34;;;;;;;2.65;2.03;;;;;;;27.30;48.89;99643.31;5030757;28;20033;-94
2022/07/01 05:29:00;;;;;;;13.43;3.88;;;;;;;27.15;47.28;99655.44;5032557;28;20033;-94
2022/07/01 05:31:25;;;;;;;3.33;2.17;;;;;;;27.01;46.90;99670.16;5031582;28;20029;-94
2022/07/01 05:33:51;;;;;;;4.10;2.47;;;;;;;26.43;48.11;99656.88;5030663;28;20043;-95
2022/07/01 05:36:16;;;;;;;5.63;2.97;;;;;;;26.70;49.06;99674.56;5031215;28;20038;-95
2022/07/01 05:38:42;;;;;;;3.90;2.33;;;;;;;26.94;48.53;99655.41;5031950;28;20041;-94
2022/07/01 05:41:07;;;;;;;7.90;3.20;;;;;;;27.46;47.43;99636.59;5031103;28;20492;-95
2022/07/01 05:43:33;;;;;;;5.13;2.83;;;;;;;27.80;46.96;99652.63;5030344;28;20143;-94
2022/07/01 05:45:58;;;;;;;4.72;2.92;;;;;;;27.60;47.32;99638.13;5029435;28;20030;-91
2022/07/01 05:48:24;;;;;;;3.75;2.72;;;;;;;27.92;47.52;99638.00;5030222;28;20056;-93
2022/07/01 05:50:50;;;;;;;5.25;2.13;;;;;;;28.32;46.30;99637.16;5030805;28;20029;-94
2022/07/01 05:53:16;;;;;;;4.15;2.38;;;;;;;28.44;45.10;99648.78;5029321;28;20123;-92
2022/07/01 05:55:42;;;;;;;2.65;1.92;;;;;;;28.28;45.18;99637.59;5031122;28;20108;-93
2022/07/01 05:58:08;;;;;;;3.13;1.90;;;;;;;28.25;44.74;99644.13;5030659;28;20033;-92
2022/07/01 06:00:34;;;;;;;2.15;1.73;;;;;;;28.32;42.68;99645.31;5031440;28;20029;-93
2022/07/01 06:03:00;;;;;;;3.50;2.33;;;;;;;28.18;45.51;99661.97;5031714;28;20514;-91
2022/07/01 06:05:26;;;;;;;3.35;2.10;;;;;;;28.21;43.04;99635.44;5030946;28;20029;-93
2022/07/01 06:07:51;;;;;;;1.98;1.52;;;;;;;28.12;44.44;99627.28;5029757;28;20025;-93
2022/07/01 06:10:17;;;;;;;3.13;2.08;;;;;;;28.04;45.88;99664.03;5031356;28;20432;-93
2022/07/01 06:12:42;;;;;;;2.58;1.73;;;;;;;27.81;44.58;99657.06;5029285;28;20443;-94
2022/07/01 06:15:11;;;;;;;3.75;2.28;;;;;;;27.84;44.89;99645.94;5046298;28;20056;-93
2022/07/01 06:17:37;;;;;;;2.85;1.83;;;;;;;28.49;43.97;99651.91;5050883;28;20078;-94
2022/07/01 06:20:03;;;;;;;3.22;2.55;;;;;;;28.94;43.78;99650.56;5033481;28;20024;-93
2022/07/01 06:22:29;;;;;;;5.55;1.83;;;;;;;28.58;43.12;99639.38;5031704;28;20052;-92
2022/07/01 06:24:54;;;;;;;2.75;1.77;;;;;;;28.69;45.20;99647.41;5051048;28;20033;-93
2022/07/01 06:27:20;;;;;;;4.28;2.88;;;;;;;28.98;43.59;99652.03;5032484;28;20513;-90
2022/07/01 06:29:45;;;;;;;3.45;2.40;;;;;;;28.93;44.06;99638.00;5050800;28;20035;-91
2022/07/01 06:32:11;;;;;;;3.08;1.58;;;;;;;29.08;42.51;99649.28;5051443;28;20414;-94
2022/07/01 06:34:38;;;;;;;3.85;2.30;;;;;;;29.25;42.97;99621.44;5050411;28;20505;-93
2022/07/01 06:37:03;;;;;;;5.22;2.72;;;;;;;29.39;42.23;99650.00;5050818;28;20025;-91
2022/07/01 06:39:30;;;;;;;3.28;1.90;;;;;;;29.76;43.14;99657.34;5049635;28;20025;-91
2022/07/01 06:41:56;;;;;;;4.57;2.50;;;;;;;29.52;43.59;99643.41;5050997;28;20186;-93
2022/07/01 06:44:21;;;;;;;5.45;1.60;;;;;;;29.73;40.95;99660.38;5050114;28;20094;-93
2022/07/01 06:46:47;;;;;;;1.92;1.40;;;;;;;29.54;43.19;99644.97;5033162;28;20043;-91
2022/07/01 06:49:13;;;;;;;2.58;1.95;;;;;;;29.82;42.31;99639.66;5049394;28;20037;-92
2022/07/01 06:51:39;;;;;;;3.28;2.35;;;;;;;30.63;40.79;99640.81;5049258;28;20033;-91
2022/07/01 06:54:04;;;;;;;3.53;2.25;;;;;;;30.56;40.11;99650.63;5049272;28;20033;-91
2022/07/01 06:56:30;;;;;;;3.35;2.00;;;;;;;30.62;38.57;99659.03;5049799;28;20032;-89
2022/07/01 06:58:56;;;;;;;2.80;2.05;;;;;;;30.22;39.35;99654.78;5053409;28;20040;-92
2022/07/01 07:01:22;;;;;;;2.72;1.45;;;;;;;30.86;39.95;99631.22;5035727;28;20064;-92
2022/07/01 07:03:47;;;;;;;2.70;1.90;;;;;;;31.37;39.30;99638.81;5054498;28;20483;-94
2022/07/01 07:06:13;;;;;;;3.58;1.67;;;;;;;31.46;36.23;99631.56;5035697;28;20029;-92
2022/07/01 07:08:38;;;;;;;7.90;2.97;;;;;;;31.24;37.84;99631.06;5036571;28;20040;-94
2022/07/01 07:11:04;;;;;;;2.45;1.83;;;;;;;31.49;37.45;99612.16;5036487;28;20080;-94
2022/07/01 07:13:30;;;;;;;11.48;2.60;;;;;;;31.80;35.86;99628.06;5035041;28;20040;-95
2022/07/01 07:15:56;;;;;;;3.00;2.10;;;;;;;32.36;37.71;99642.13;5036803;28;20476;-95
2022/07/01 07:18:21;;;;;;;3.13;2.03;;;;;;;32.12;37.03;99600.94;5036246;28;20032;-92
2022/07/01 07:20:49;;;;;;;2.20;1.55;;;;;;;31.80;35.48;99603.50;5053533;28;20064;-94
2022/07/01 07:23:15;;;;;;;2.75;2.20;;;;;;;32.11;36.45;99623.78;5036156;28;20044;-94
2022/07/01 07:25:41;;;;;;;5.40;1.73;;;;;;;31.93;35.93;99621.13;5054444;28;20024;-92
2022/07/01 07:28:07;;;;;;;2.85;1.80;;;;;;;31.83;34.78;99614.94;5053592;28;20120;-93
2022/07/01 07:30:33;;;;;;;2.33;1.58;;;;;;;32.26;37.04;99584.97;5035642;28;20032;-92
2022/07/01 07:32:58;;;;;;;3.28;1.98;;;;;;;32.52;34.54;99612.16;5035197;28;20044;-91
2022/07/01 07:35:24;;;;;;;3.65;2.53;;;;;;;33.24;36.06;99627.97;5053118;28;20557;-91
2022/07/01 07:37:50;;;;;;;2.10;1.40;;;;;;;32.91;34.74;99592.44;5035633;28;20040;-95
2022/07/01 07:40:18;;;;;;;2.83;1.58;;;;;;;32.88;35.90;99633.75;5035972;28;20132;-94
2022/07/01 07:42:46;;;;;;;2.65;1.90;;;;;;;32.63;34.19;99611.00;5052187;28;20407;-93
2022/07/01 07:45:13;;;;;;;3.33;1.52;;;;;;;32.55;34.32;99630.94;5034622;28;20479;-93
2022/07/01 07:47:42;;;;;;;5.13;1.83;;;;;;;32.51;34.27;99604.16;5052136;28;20033;-93
2022/07/01 07:50:08;;;;;;;2.00;1.45;;;;;;;33.35;34.64;99607.66;5035453;28;20087;-93
2022/07/01 07:52:34;;;;;;;2.42;1.83;;;;;;;33.66;33.59;99605.03;5052698;28;20040;-93
2022/07/01 07:55:00;;;;;;;4.57;1.92;;;;;;;33.42;31.85;99621.50;5053775;28;20032;-94
2022/07/01 07:57:25;;;;;;;4.65;2.42;;;;;;;33.61;33.29;99629.31;5052385;28;20021;-95
2022/07/01 07:59:51;;;;;;;3.10;1.40;;;;;;;33.28;33.41;99634.81;5035246;28;20174;-93
2022/07/01 08:02:16;;;;;;;2.53;1.15;;;;;;;33.21;33.29;99613.81;5035544;28;20036;-94
2022/07/01 08:04:42;;;;;;;4.95;1.85;;;;;;;33.50;35.27;99608.66;5034480;28;20094;-94
2022/07/01 08:07:07;;;;;;;2.90;1.98;;;;;;;33.56;35.91;99618.03;5053235;28;20033;-93
2022/07/01 08:09:34;;;;;;;2.45;1.42;;;;;;;33.53;33.01;99604.72;5051926;28;20119;-93
2022/07/01 08:12:00;;;;;;;3.08;1.98;;;;;;;33.69;31.15;99628.44;5034493;28;20070;-91
2022/07/01 08:14:26;;;;;;;2.65;1.80;;;;;;;33.47;31.20;99622.66;5053259;28;20071;-93
2022/07/01 08:16:52;;;;;;;2.00;1.35;;;;;;;33.24;33.04;99622.50;5053121;28;20483;-93
2022/07/01 08:19:18;;;;;;;6.07;1.77;;;;;;;33.33;32.36;99637.88;5052720;28;20510;-90
2022/07/01 08:21:43;;;;;;;2.33;1.40;;;;;;;33.48;33.88;99613.44;5052482;28;20041;-93
2022/07/01 08:24:09;;;;;;;3.72;2.45;;;;;;;33.44;31.54;99613.97;5053089;28;20025;-92
2022/07/01 08:26:34;;;;;;;2.67;1.65;;;;;;;33.13;34.66;99590.06;5034839;28;20029;-92
2022/07/01 08:28:59;;;;;;;2.45;1.67;;;;;;;34.10;34.36;99628.34;5052786;28;20479;-93
2022/07/01 08:31:25;;;;;;;3.03;2.00;;;;;;;34.09;36.02;99621.16;5052781;28;20036;-92
2022/07/01 08:33:50;;;;;;;2.63;1.83;;;;;;;34.15;32.29;99612.22;5034611;28;20037;-93
2022/07/01 08:36:16;;;;;;;2.92;1.80;;;;;;;34.84;31.99;99599.75;5034842;28;20025;-93
2022/07/01 08:38:41;;;;;;;2.83;1.50;;;;;;;34.88;30.64;99585.50;5053394;28;20033;-93
2022/07/01 08:41:07;;;;;;;2.72;1.80;;;;;;;34.08;31.10;99601.16;5035704;28;20127;-92
2022/07/01 08:43:34;;;;;;;3.10;1.60;;;;;;;34.37;32.07;99612.50;5035057;28;20426;-94
2022/07/01 08:46:01;;;;;;;3.05;2.10;;;;;;;34.66;32.94;99592.66;5036121;28;20032;-92
2022/07/01 08:48:28;;;;;;;2.72;1.65;;;;;;;35.21;33.89;99598.91;5035828;28;20068;-93
2022/07/01 08:50:54;;;;;;;2.67;1.95;;;;;;;34.64;31.90;99611.16;5054047;28;20438;-93
2022/07/01 08:53:19;;;;;;;1.65;1.48;;;;;;;35.11;30.96;99606.53;5052996;28;20036;-94
2022/07/01 08:58:29;;;;;;;3.20;1.63;;;;;;;34.87;31.12;99589.28;5053091;28;20087;-94
2022/07/01 09:01:20;;;;;;;1.85;1.42;;;;;;;35.26;33.18;99596.50;5034494;28;20041;-94
2022/07/01 09:03:46;;;;;;;1.58;1.13;;;;;;;35.72;29.22;99595.50;5052343;28;20116;-93
2022/07/01 09:06:19;;;;;;;3.13;1.73;;;;;;;36.07;31.98;99594.94;5034793;28;20392;-95
2022/07/01 09:08:46;;;;;;;2.55;1.55;;;;;;;36.42;29.67;99596.03;5035305;28;20487;-94
2022/07/01 09:11:18;;;;;;;2.63;1.80;;;;;;;35.90;29.83;99584.19;5053083;28;20025;-95
2022/07/01 09:13:45;;;;;;;1.63;1.13;;;;;;;36.05;28.54;99575.94;5032030;28;20088;-96
2022/07/01 09:16:16;;;;;;;2.53;1.83;;;;;;;36.36;27.67;99572.09;5033756;28;20068;-95
2022/07/01 09:19:03;;;;;;;2.15;1.35;;;;;;;35.84;28.98;99585.81;5032699;28;20029;-96
2022/07/01 09:21:33;;;;;;;2.83;1.60;;;;;;;36.05;28.57;99575.09;5032549;28;20044;-96
2022/07/01 09:24:05;;;;;;;2.38;1.20;;;;;;;36.23;29.15;99599.41;5034781;28;20044;-95
2022/07/01 09:26:31;;;;;;;3.67;1.77;;;;;;;35.86;27.85;99585.63;5034272;28;20101;-95
2022/07/01 09:28:59;;;;;;;3.72;1.40;;;;;;;35.85;27.46;99543.63;5034150;28;20511;-93
2022/07/01 09:31:35;;;;;;;2.83;1.90;;;;;;;36.34;28.64;99579.69;5032846;28;20470;-96
2022/07/01 09:34:08;;;;;;;1.30;1.17;;;;;;;35.89;32.35;99571.50;5032677;28;20036;-91
2022/07/01 09:36:41;;;;;;;1.95;1.75;;;;;;;36.07;30.17;99573.88;5033468;28;20037;-95
2022/07/01 09:39:07;;;;;;;3.17;1.40;;;;;;;36.39;28.28;99571.72;5032286;28;20025;-96
2022/07/01 09:41:39;;;;;;;2.22;1.70;;;;;;;36.07;28.25;99518.97;5032734;28;20120;-96
2022/07/01 09:44:06;;;;;;;3.35;1.88;;;;;;;36.94;29.36;99541.88;5047593;28;20511;-94
2022/07/01 09:46:32;;;;;;;5.93;2.50;;;;;;;37.33;27.45;99564.41;5032008;28;20510;-94
2022/07/01 09:49:00;;;;;;;1.92;1.73;;;;;;;37.33;28.22;99562.50;5030517;28;20030;-94
2022/07/01 09:51:26;;;;;;;2.72;1.90;;;;;;;36.79;28.38;99546.59;5031868;28;20053;-91
2022/07/01 09:53:52;;;;;;;3.85;2.80;;;;;;;36.74;28.40;99558.19;5032371;28;20052;-91
2022/07/01 09:56:21;;;;;;;3.70;2.88;;;;;;;37.02;28.73;99555.47;5030875;28;20021;-93
2022/07/01 09:58:47;;;;;;;3.20;2.47;;;;;;;37.50;28.60;99564.94;5030626;28;20033;-95
2022/07/01 10:01:14;;;;;;;6.20;3.70;;;;;;;37.59;27.26;99570.06;5031829;28;20538;-92
2022/07/01 10:03:41;;;;;;;9.13;3.25;;;;;;;37.30;29.08;99520.81;5038615;28;20096;-93
2022/07/01 10:06:06;;;;;;;2.08;1.55;;;;;;;37.66;27.50;99570.09;5045360;28;20037;-93
2022/07/01 10:08:55;;;;;;;6.97;1.83;;;;;;;36.95;27.89;99540.78;5042844;28;20060;-93
2022/07/01 10:11:48;;;;;;;2.47;1.35;;;;;;;36.79;28.91;99558.44;5032139;28;20096;-95
2022/07/01 10:14:16;;;;;;;3.00;1.75;;;;;;;37.00;28.44;99568.56;5028958;28;20052;-95
2022/07/01 10:16:48;;;;;;;1.60;1.40;;;;;;;37.60;27.83;99570.91;5029420;28;20033;-94
2022/07/01 10:19:33;;;;;;;4.03;1.92;;;;;;;38.25;27.06;99577.03;5031843;28;20057;-96
2022/07/01 10:22:41;;;;;;;2.35;1.38;;;;;;;38.02;25.28;99559.94;5032313;28;20041;-94
2022/07/01 10:25:35;;;;;;;2.20;1.63;;;;;;;38.12;25.64;99560.41;5047078;28;20423;-93
2022/07/01 10:28:20;;;;;;;3.90;2.92;;;;;;;37.89;27.94;99535.97;5027386;28;20030;-94
2022/07/01 10:31:02;;;;;;;4.22;1.75;;;;;;;37.68;23.15;99558.88;5032087;28;20523;-95
2022/07/01 10:33:42;;;;;;;2.15;1.50;;;;;;;37.43;23.09;99530.00;5033381;28;20557;-96
2022/07/01 10:36:07;;;;;;;2.88;1.60;;;;;;;37.47;23.81;99551.59;5035111;28;20033;-91
2022/07/01 10:38:33;;;;;;;2.70;1.23;;;;;;;36.70;25.93;99504.63;5036598;28;20029;-91
2022/07/01 10:41:09;;;;;;;2.30;1.40;;;;;;;36.75;27.47;99510.44;5035910;28;20033;-93
2022/07/01 10:43:37;;;;;;;4.00;2.42;;;;;;;37.51;24.14;99498.72;5051683;28;20033;-95
2022/07/01 10:46:04;;;;;;;3.67;2.72;;;;;;;38.13;24.44;99535.41;5042247;28;20021;-95
2022/07/01 10:48:33;;;;;;;2.97;1.80;;;;;;;37.84;24.53;99494.47;5045610;28;20030;-92
2022/07/01 10:51:02;;;;;;;2.65;2.17;;;;;;;37.93;23.82;99506.97;5046504;28;20034;-96
2022/07/01 10:53:46;;;;;;;2.42;1.60;;;;;;;38.31;23.44;99512.84;5026766;28;20033;-90
2022/07/01 10:56:17;;;;;;;1.85;1.40;;;;;;;38.55;26.76;99520.72;5035315;28;20034;-93
2022/07/01 10:58:42;;;;;;;2.10;1.30;;;;;;;38.06;24.98;99511.69;5034034;28;20064;-90
2022/07/01 11:01:09;;;;;;;3.63;1.67;;;;;;;37.98;24.63;99499.78;5017157;28;20041;-92
2022/07/01 11:03:36;;;;;;;2.33;1.55;;;;;;;37.51;25.42;99517.09;5035032;28;20116;-92
2022/07/01 11:06:02;;;;;;;2.22;1.58;;;;;;;37.52;24.94;99505.06;5034684;28;20091;-91
2022/07/01 11:08:27;;;;;;;2.38;1.77;;;;;;;37.90;24.52;99475.22;5033410;28;20053;-90
2022/07/01 11:10:59;;;;;;;8.55;2.17;;;;;;;38.31;24.13;99501.84;5034969;28;20083;-96
2022/07/01 11:13:26;;;;;;;2.65;1.77;;;;;;;38.04;23.97;99487.09;5034547;28;20442;-92
2022/07/01 11:15:52;;;;;;;1.95;1.27;;;;;;;38.10;23.82;99482.69;5037281;28;20041;-92
2022/07/01 11:18:19;;;;;;;1.92;1.60;;;;;;;37.71;23.20;99504.34;5038848;28;20064;-95
2022/07/01 11:20:45;;;;;;;2.15;1.48;;;;;;;37.41;25.13;99492.72;5018658;28;20045;-93
2022/07/01 11:23:11;;;;;;;2.70;1.77;;;;;;;37.30;23.52;99474.91;5036715;28;20075;-91
2022/07/01 11:25:36;;;;;;;1.08;0.90;;;;;;;37.66;23.10;99484.81;5053762;28;20508;-90
2022/07/01 11:28:02;;;;;;;2.28;1.40;;;;;;;37.50;24.05;99461.25;5054559;28;20486;-94
2022/07/01 11:30:28;;;;;;;2.17;1.33;;;;;;;37.75;23.07;99488.28;5036710;28;20043;-92
2022/07/01 11:32:58;;;;;;;2.15;1.67;;;;;;;37.78;23.41;99463.94;5055564;28;20040;-91
2022/07/01 11:41:17;;;;;;;6.03;2.83;;;;;;;36.98;26.50;99468.09;5055310;28;20098;-90
2022/07/01 11:43:44;;;;;;;2.60;1.60;;;;;;;38.01;23.47;99461.91;5034919;28;20033;-96
2022/07/01 11:46:09;;;;;;;1.80;1.30;;;;;;;38.40;23.92;99465.81;5036671;28;20035;-91
2022/07/01 11:48:41;;;;;;;2.42;1.50;;;;;;;38.44;23.72;99470.69;5052507;28;20125;-89
2022/07/01 11:51:12;;;;;;;3.20;1.80;;;;;;;38.03;22.99;99473.56;5053936;28;20546;-94